createdAt,value
2023-11-12T00:01:23.126Z,95495.97
2023-11-12T00:03:52.426Z,95495.41
2023-11-12T00:06:20.446Z,95489.72
2023-11-12T00:08:48.317Z,95491.00
2023-11-12T00:11:16.394Z,95491.97
2023-11-12T00:13:44.470Z,95485.22
2023-11-12T00:16:12.689Z,95480.97
2023-11-12T00:18:40.663Z,95482.75
2023-11-12T00:21:10.023Z,95478.97
2023-11-12T00:23:38.421Z,95476.75
2023-11-12T00:26:06.416Z,95482.13
2023-11-12T00:28:34.485Z,95475.50
2023-11-12T00:31:02.368Z,95474.69
2023-11-12T00:33:30.985Z,95465.53
2023-11-12T00:35:58.865Z,95461.75
2023-11-12T00:38:28.210Z,95463.66
2023-11-12T00:40:57.326Z,95458.09
2023-11-12T00:43:28.403Z,95458.09
2023-11-12T00:45:59.727Z,95459.69
2023-11-12T00:48:27.846Z,95457.81
2023-11-12T00:50:55.934Z,95458.28
2023-11-12T00:53:24.498Z,95463.66
2023-11-12T00:55:53.885Z,95452.13
2023-11-12T00:58:21.911Z,95454.31
2023-11-12T01:00:50.870Z,95451.47
2023-11-12T01:03:18.844Z,95448.00
2023-11-12T01:05:47.174Z,95446.88
2023-11-12T01:08:15.426Z,95448.00
2023-11-12T01:10:43.514Z,95449.56
2023-11-12T01:13:13.361Z,95441.53
2023-11-12T01:15:43.692Z,95442.31
2023-11-12T01:18:11.747Z,95442.78
2023-11-12T01:20:39.749Z,95440.09
2023-11-12T01:23:07.834Z,95428.31
2023-11-12T01:25:35.822Z,95429.88
2023-11-12T01:28:05.021Z,95427.47
2023-11-12T01:30:34.625Z,95420.84
2023-11-12T01:33:05.070Z,95424.94
2023-11-12T01:35:33.836Z,95417.50
2023-11-12T01:38:02.009Z,95422.56
2023-11-12T01:40:30.563Z,95426.63
2023-11-12T01:42:58.940Z,95419.19
2023-11-12T01:45:26.896Z,95408.28
2023-11-12T01:47:56.626Z,95409.66
2023-11-12T01:50:24.733Z,95402.72
2023-11-12T01:52:54.145Z,95409.19
2023-11-12T01:55:24.805Z,95412.34
2023-11-12T01:57:54.459Z,95405.78
2023-11-12T02:00:23.639Z,95396.44
2023-11-12T02:02:54.431Z,95403.72
2023-11-12T02:05:25.323Z,95399.44
2023-11-12T02:07:54.811Z,95392.38
2023-11-12T02:10:22.816Z,95395.72
2023-11-12T02:12:50.889Z,95395.41
2023-11-12T02:15:19.479Z,95390.25
2023-11-12T02:17:49.225Z,95389.47
2023-11-12T02:20:17.288Z,95389.25
2023-11-12T02:22:46.637Z,95386.38
2023-11-12T02:25:16.560Z,95388.03
2023-11-12T02:27:45.908Z,95383.81
2023-11-12T02:30:14.454Z,95379.88
2023-11-12T02:32:42.934Z,95376.13
2023-11-12T02:35:11.476Z,95384.06
2023-11-12T02:37:39.983Z,95378.53
2023-11-12T02:40:09.442Z,95373.47
2023-11-12T02:42:38.903Z,95377.44
2023-11-12T02:45:08.782Z,95377.34
2023-11-12T02:47:37.376Z,95371.44
2023-11-12T02:50:33.081Z,95371.00
2023-11-12T02:53:02.027Z,95373.91
2023-11-12T02:55:30.442Z,95368.16
2023-11-12T02:58:00.000Z,95377.97
2023-11-12T03:00:29.456Z,95374.88
2023-11-12T03:02:59.374Z,95360.19
2023-11-12T03:05:28.124Z,95356.56
2023-11-12T03:07:56.796Z,95357.22
2023-11-12T03:10:26.054Z,95355.75
2023-11-12T03:12:54.624Z,95339.56
2023-11-12T03:15:24.942Z,95340.25
2023-11-12T03:17:53.919Z,95336.66
2023-11-12T03:20:22.181Z,95338.66
2023-11-12T03:22:50.491Z,95329.41
2023-11-12T03:25:18.543Z,95326.03
2023-11-12T03:27:46.499Z,95321.56
2023-11-12T03:30:15.650Z,95319.25
2023-11-12T03:32:45.043Z,95316.38
2023-11-12T03:35:13.642Z,95307.66
2023-11-12T03:37:41.533Z,95302.91
2023-11-12T03:40:10.933Z,95293.09
2023-11-12T03:42:38.838Z,95298.78
2023-11-12T03:45:07.830Z,95296.19
2023-11-12T03:47:35.753Z,95293.34
2023-11-12T03:50:05.593Z,95280.84
2023-11-12T03:52:33.465Z,95282.28
2023-11-12T03:55:01.318Z,95273.28
2023-11-12T03:57:29.329Z,95275.22
2023-11-12T03:59:57.231Z,95266.22
2023-11-12T04:02:25.214Z,95254.53
2023-11-12T04:04:53.658Z,95254.03
2023-11-12T04:07:24.618Z,95256.00
2023-11-12T04:09:52.622Z,95249.91
2023-11-12T04:12:20.660Z,95257.50
2023-11-12T04:14:48.640Z,95259.94
2023-11-12T04:17:16.551Z,95259.25
2023-11-12T04:19:44.787Z,95253.19
2023-11-12T04:22:12.842Z,95246.31
2023-11-12T04:24:42.197Z,95239.16
2023-11-12T04:27:10.271Z,95256.34
2023-11-12T04:29:38.204Z,95253.75
2023-11-12T04:32:06.282Z,95246.88
2023-11-12T04:34:34.195Z,95247.75
2023-11-12T04:37:02.142Z,95251.47
2023-11-12T04:39:30.105Z,95248.31
2023-11-12T04:41:59.430Z,95256.31
2023-11-12T04:44:27.694Z,95254.94
2023-11-12T04:46:55.653Z,95226.13
2023-11-12T04:49:25.479Z,95231.94
2023-11-12T04:51:55.043Z,95235.69
2023-11-12T04:54:23.033Z,95231.16
2023-11-12T04:56:50.973Z,95232.47
2023-11-12T04:59:20.348Z,95230.03
2023-11-12T05:01:48.244Z,95226.53
2023-11-12T05:04:17.373Z,95225.03
2023-11-12T05:06:45.400Z,95231.50
2023-11-12T05:09:13.348Z,95235.53
2023-11-12T05:11:41.322Z,95223.00
2023-11-12T05:14:11.147Z,95222.72
2023-11-12T05:16:44.099Z,95217.38
2023-11-12T05:19:12.469Z,95239.28
2023-11-12T05:21:45.410Z,95228.41
2023-11-12T05:24:13.996Z,95232.44
2023-11-12T05:26:42.337Z,95232.72
2023-11-12T05:29:10.329Z,95226.38
2023-11-12T05:31:38.406Z,95227.72
2023-11-12T05:34:07.786Z,95230.75
2023-11-12T05:36:35.813Z,95233.47
2023-11-12T05:39:03.760Z,95235.13
2023-11-12T05:41:32.066Z,95230.34
2023-11-12T05:44:00.053Z,95226.34
2023-11-12T05:46:28.928Z,95236.72
2023-11-12T05:48:56.878Z,95234.03
2023-11-12T05:51:26.195Z,95230.34
2023-11-12T05:53:54.117Z,95228.78
2023-11-12T05:56:22.125Z,95235.75
2023-11-12T05:58:50.089Z,95238.19
2023-11-12T06:01:19.887Z,95238.97
2023-11-12T06:03:48.010Z,95236.03
2023-11-12T06:06:16.881Z,95232.28
2023-11-12T06:08:46.099Z,95239.22
2023-11-12T06:11:14.209Z,95238.66
2023-11-12T06:13:42.026Z,95238.84
2023-11-12T06:16:10.020Z,95243.38
2023-11-12T06:18:38.434Z,95242.38
2023-11-12T06:21:06.721Z,95255.44
2023-11-12T06:23:35.556Z,95249.31
2023-11-12T06:26:04.882Z,95251.69
2023-11-12T06:28:32.651Z,95262.84
2023-11-12T06:31:00.412Z,95261.78
2023-11-12T06:33:28.365Z,95259.31
2023-11-12T06:35:56.644Z,95268.34
2023-11-12T06:38:24.834Z,95272.34
2023-11-12T06:40:53.046Z,95279.41
2023-11-12T06:43:22.421Z,95285.19
2023-11-12T06:45:50.492Z,95286.00
2023-11-12T06:48:19.843Z,95285.19
2023-11-12T06:50:47.727Z,95297.97
2023-11-12T06:53:15.727Z,95296.09
2023-11-12T06:55:43.739Z,95292.28
2023-11-12T06:58:11.809Z,95295.41
2023-11-12T07:00:41.125Z,95299.09
2023-11-12T07:03:09.350Z,95299.50
2023-11-12T07:05:38.441Z,95301.91
2023-11-12T07:08:06.840Z,95297.00
2023-11-12T07:10:35.306Z,95306.03
2023-11-12T07:13:03.168Z,95305.16
2023-11-12T07:15:31.063Z,95314.19
2023-11-12T07:18:02.453Z,95301.31
2023-11-12T07:20:33.746Z,95293.22
2023-11-12T07:23:02.351Z,95297.88
2023-11-12T07:25:30.788Z,95297.25
2023-11-12T07:27:58.669Z,95293.72
2023-11-12T07:30:26.600Z,95293.13
2023-11-12T07:32:54.473Z,95289.31
2023-11-12T07:35:24.205Z,95296.66
2023-11-12T07:37:52.288Z,95291.53
2023-11-12T07:40:20.352Z,95308.53
2023-11-12T07:42:48.244Z,95304.28
2023-11-12T07:45:21.272Z,95312.53
2023-11-12T07:47:53.532Z,95310.06
2023-11-12T07:50:22.895Z,95308.09
2023-11-12T07:52:51.229Z,95312.00
2023-11-12T07:55:19.082Z,95305.41
2023-11-12T07:57:46.954Z,95318.31
2023-11-12T08:00:15.934Z,95318.41
2023-11-12T08:02:46.577Z,95320.72
2023-11-12T08:05:14.861Z,95325.66
2023-11-12T08:07:44.121Z,95327.47
2023-11-12T08:10:12.716Z,95328.75
2023-11-12T08:12:40.586Z,95332.44
2023-11-12T08:15:12.219Z,95334.72
2023-11-12T08:17:40.153Z,95335.41
2023-11-12T08:20:10.027Z,95348.31
2023-11-12T08:22:37.806Z,95350.75
2023-11-12T08:25:10.648Z,95348.31
2023-11-12T08:27:39.293Z,95350.19
2023-11-12T08:30:08.294Z,95350.00
2023-11-12T08:32:37.345Z,95361.81
2023-11-12T08:35:05.952Z,95362.19
2023-11-12T08:37:33.833Z,95365.38
2023-11-12T08:40:02.708Z,95360.03
2023-11-12T08:42:32.019Z,95357.81
2023-11-12T08:44:59.883Z,95360.78
2023-11-12T08:47:27.902Z,95364.63
2023-11-12T08:49:55.835Z,95356.66
2023-11-12T08:52:23.940Z,95346.81
2023-11-12T08:54:52.771Z,95351.94
2023-11-12T08:57:20.625Z,95349.34
2023-11-12T08:59:50.624Z,95353.34
2023-11-12T09:02:18.405Z,95361.78
2023-11-12T09:04:46.205Z,95369.69
2023-11-12T09:07:14.234Z,95373.97
2023-11-12T09:09:42.120Z,95370.50
2023-11-12T09:12:10.127Z,95376.66
2023-11-12T09:14:37.958Z,95385.72
2023-11-12T09:17:07.970Z,95386.16
2023-11-12T09:19:36.300Z,95387.25
2023-11-12T09:22:04.233Z,95385.16
2023-11-12T09:24:32.199Z,95377.72
2023-11-12T09:26:59.982Z,95394.59
2023-11-12T09:29:29.561Z,95397.78
2023-11-12T09:31:57.398Z,95388.44
2023-11-12T09:34:27.950Z,95401.75
2023-11-12T09:36:55.821Z,95400.34
2023-11-12T09:39:24.904Z,95403.72
2023-11-12T09:41:55.816Z,95395.19
2023-11-12T09:44:28.727Z,95399.75
2023-11-12T09:47:17.922Z,95399.91
2023-11-12T09:49:48.538Z,95402.06
2023-11-12T09:52:16.416Z,95398.97
2023-11-12T09:54:47.100Z,95404.72
2023-11-12T09:57:15.374Z,95406.28
2023-11-12T09:59:43.195Z,95407.78
2023-11-12T10:02:11.567Z,95406.06
2023-11-12T10:04:44.482Z,95407.41
2023-11-12T10:07:16.519Z,95400.38
2023-11-12T10:09:44.924Z,95403.47
2023-11-12T10:12:12.981Z,95403.72
2023-11-12T10:14:41.895Z,95406.94
2023-11-12T10:17:12.302Z,95403.19
2023-11-12T10:19:40.146Z,95401.28
2023-11-12T10:22:08.590Z,95402.88
2023-11-12T10:24:46.058Z,95407.50
2023-11-12T10:27:15.555Z,95401.81
2023-11-12T10:29:44.856Z,95401.97
2023-11-12T10:32:26.490Z,95404.50
2023-11-12T10:34:54.747Z,95396.75
2023-11-12T10:37:22.608Z,95403.59
2023-11-12T10:39:51.928Z,95402.03
2023-11-12T10:42:25.957Z,95408.06
2023-11-12T10:44:57.253Z,95404.75
2023-11-12T10:47:26.874Z,95402.84
2023-11-12T10:49:55.861Z,95408.41
2023-11-12T10:52:24.912Z,95413.31
2023-11-12T10:54:57.464Z,95418.38
2023-11-12T10:57:26.169Z,95404.59
2023-11-12T10:59:56.443Z,95409.38
2023-11-12T11:02:30.034Z,95405.53
2023-11-12T11:04:58.497Z,95407.94
2023-11-12T11:07:26.526Z,95413.63
2023-11-12T11:09:55.939Z,95416.63
2023-11-12T11:12:24.818Z,95407.00
2023-11-12T11:14:52.670Z,95406.78
2023-11-12T11:17:37.751Z,95407.72
2023-11-12T11:20:06.680Z,95410.75
2023-11-12T11:22:34.625Z,95409.63
2023-11-12T11:25:24.130Z,95404.47
2023-11-12T11:28:12.086Z,95403.09
2023-11-12T11:31:10.927Z,95410.78
2023-11-12T11:33:47.778Z,95410.59
2023-11-12T11:36:16.716Z,95403.84
2023-11-12T11:39:15.728Z,95414.72
2023-11-12T11:42:18.550Z,95412.06
2023-11-12T11:44:47.980Z,95425.59
2023-11-12T11:47:17.215Z,95427.47
2023-11-12T11:49:47.382Z,95422.66
2023-11-12T11:52:23.068Z,95416.72
2023-11-12T11:54:58.583Z,95423.69
2023-11-12T11:57:29.142Z,95423.50
2023-11-12T11:59:58.487Z,95426.38
2023-11-12T12:02:26.881Z,95428.88
2023-11-12T12:04:58.514Z,95432.91
2023-11-12T12:07:42.646Z,95421.91
2023-11-12T12:10:12.703Z,95424.03
2023-11-12T12:12:42.420Z,95431.13
2023-11-12T12:15:12.537Z,95430.50
2023-11-12T12:17:42.154Z,95427.50
2023-11-12T12:20:11.169Z,95424.63
2023-11-12T12:22:39.947Z,95425.19
2023-11-12T12:25:10.240Z,95424.47
2023-11-12T12:27:38.316Z,95412.03
2023-11-12T12:30:14.140Z,95409.00
2023-11-12T12:32:42.202Z,95413.19
2023-11-12T12:35:10.322Z,95401.69
2023-11-12T12:37:38.269Z,95407.03
2023-11-12T12:40:15.002Z,95403.94
2023-11-12T12:42:44.517Z,95399.66
2023-11-12T12:45:17.145Z,95407.41
2023-11-12T12:47:45.780Z,95408.47
2023-11-12T12:50:16.328Z,95413.75
2023-11-12T12:52:48.355Z,95403.91
2023-11-12T12:55:18.298Z,95409.50
2023-11-12T12:57:51.034Z,95414.72
2023-11-12T13:00:23.572Z,95406.38
2023-11-12T13:02:52.849Z,95409.06
2023-11-12T13:05:22.743Z,95403.47
2023-11-12T13:07:51.695Z,95408.25
2023-11-12T13:10:21.653Z,95413.53
2023-11-12T13:12:51.608Z,95413.97
2023-11-12T13:15:22.389Z,95418.19
2023-11-12T13:17:50.844Z,95415.50
2023-11-12T13:20:20.938Z,95415.34
2023-11-12T13:22:49.386Z,95413.13
2023-11-12T13:25:17.245Z,95409.72
2023-11-12T13:27:46.660Z,95416.69
2023-11-12T13:30:16.249Z,95420.66
2023-11-12T13:32:47.781Z,95422.13
2023-11-12T13:35:16.842Z,95415.78
2023-11-12T13:37:46.511Z,95412.16
2023-11-12T13:40:15.561Z,95411.75
2023-11-12T13:42:44.097Z,95418.44
2023-11-12T13:45:13.121Z,95413.66
2023-11-12T13:47:41.143Z,95413.38
2023-11-12T13:50:14.824Z,95424.03
2023-11-12T13:52:44.040Z,95418.78
2023-11-12T13:55:13.023Z,95418.81
2023-11-12T13:57:40.949Z,95418.03
2023-11-12T14:00:37.063Z,95415.38
2023-11-12T14:03:05.205Z,95417.06
2023-11-12T14:05:34.503Z,95411.38
2023-11-12T14:08:02.317Z,95413.78
2023-11-12T14:10:31.800Z,95414.56
2023-11-12T14:13:00.667Z,95413.78
2023-11-12T14:15:29.288Z,95407.28
2023-11-12T14:17:57.264Z,95410.94
2023-11-12T14:20:26.948Z,95411.09
2023-11-12T14:22:57.080Z,95404.94
2023-11-12T14:25:25.258Z,95402.84
2023-11-12T14:27:53.861Z,95405.88
2023-11-12T14:30:22.062Z,95418.56
2023-11-12T14:32:51.939Z,95409.38
2023-11-12T14:35:23.547Z,95416.31
2023-11-12T14:37:51.467Z,95410.94
2023-11-12T14:40:20.993Z,95408.91
2023-11-12T14:42:48.941Z,95412.22
2023-11-12T14:45:25.736Z,95410.31
2023-11-12T14:48:00.572Z,95418.38
2023-11-12T14:50:30.017Z,95416.81
2023-11-12T14:52:58.976Z,95407.47
2023-11-12T14:55:28.910Z,95411.25
2023-11-12T14:57:57.867Z,95409.69
2023-11-12T15:00:30.676Z,95398.75
2023-11-12T15:03:00.330Z,95403.97
2023-11-12T15:05:29.584Z,95404.63
2023-11-12T15:07:59.030Z,95397.50
2023-11-12T15:10:29.965Z,95394.66
2023-11-12T15:12:58.897Z,95396.38
2023-11-12T15:15:26.938Z,95406.50
2023-11-12T15:17:55.672Z,95402.06
2023-11-12T15:20:24.687Z,95407.00
2023-11-12T15:22:52.948Z,95406.50
2023-11-12T15:25:21.108Z,95404.91
2023-11-12T15:27:51.111Z,95396.50
2023-11-12T15:30:20.589Z,95400.94
2023-11-12T15:32:49.283Z,95394.28
2023-11-12T15:35:18.609Z,95392.22
2023-11-12T15:37:46.614Z,95397.13
2023-11-12T15:40:21.158Z,95398.53
2023-11-12T15:42:52.817Z,95404.25
2023-11-12T15:45:24.923Z,95397.91
2023-11-12T15:47:53.905Z,95400.59
2023-11-12T15:50:23.609Z,95407.69
2023-11-12T15:52:51.826Z,95416.09
2023-11-12T15:55:19.881Z,95423.34
2023-11-12T15:57:48.013Z,95423.97
2023-11-12T16:00:19.543Z,95419.53
2023-11-12T16:02:51.042Z,95434.06
2023-11-12T16:05:20.444Z,95433.13
2023-11-12T16:07:49.651Z,95429.78
2023-11-12T16:10:18.982Z,95431.97
2023-11-12T16:12:47.273Z,95431.03
2023-11-12T16:15:16.973Z,95432.44
2023-11-12T16:17:50.060Z,95434.66
2023-11-12T16:20:18.193Z,95438.91
2023-11-12T16:22:46.924Z,95440.13
2023-11-12T16:25:14.944Z,95448.00
2023-11-12T16:27:42.922Z,95437.38
2023-11-12T16:30:12.918Z,95449.84
2023-11-12T16:32:41.136Z,95463.41
2023-11-12T16:35:12.877Z,95463.69
2023-11-12T16:37:47.953Z,95465.41
2023-11-12T16:40:16.913Z,95463.94
2023-11-12T16:42:47.058Z,95455.88
2023-11-12T16:45:15.323Z,95460.13
2023-11-12T16:47:43.469Z,95454.56
2023-11-12T16:50:15.596Z,95466.41
2023-11-12T16:53:02.197Z,95467.00
2023-11-12T16:55:30.029Z,95470.72
2023-11-12T16:57:57.975Z,95465.28
2023-11-12T17:00:29.330Z,95467.66
2023-11-12T17:02:57.260Z,95473.94
2023-11-12T17:05:27.996Z,95471.69
2023-11-12T17:07:56.154Z,95465.22
2023-11-12T17:10:24.023Z,95469.00
2023-11-12T17:12:53.341Z,95480.94
2023-11-12T17:15:21.385Z,95486.91
2023-11-12T17:17:49.871Z,95478.66
2023-11-12T17:20:18.676Z,95489.59
2023-11-12T17:22:48.572Z,95487.94
2023-11-12T17:25:17.945Z,95498.47
2023-11-12T17:27:45.997Z,95501.56
2023-11-12T17:30:14.293Z,95510.09
2023-11-12T17:32:42.514Z,95515.47
2023-11-12T17:35:12.191Z,95518.25
2023-11-12T17:37:40.104Z,95520.34
2023-11-12T17:40:11.947Z,95515.56
2023-11-12T17:42:40.130Z,95517.75
2023-11-12T17:45:11.882Z,95520.22
2023-11-12T17:47:40.489Z,95515.75
2023-11-12T17:50:09.150Z,95523.91
2023-11-12T17:52:37.114Z,95520.00
2023-11-12T17:55:07.254Z,95524.56
2023-11-12T17:57:36.706Z,95528.22
2023-11-12T18:00:07.418Z,95518.91
2023-11-12T18:02:39.622Z,95519.50
2023-11-12T18:05:07.906Z,95524.84
2023-11-12T18:10:25.850Z,95515.50
2023-11-12T18:12:55.176Z,95514.81
2023-11-12T18:15:23.043Z,95512.91
2023-11-12T18:17:50.855Z,95517.19
2023-11-12T18:20:18.962Z,95507.56
2023-11-12T18:22:46.793Z,95506.97
2023-11-12T18:25:14.818Z,95507.19
2023-11-12T18:27:43.042Z,95504.69
2023-11-12T18:30:13.477Z,95509.78
2023-11-12T18:32:41.421Z,95509.47
2023-11-12T18:35:10.848Z,95515.94
2023-11-12T18:37:39.885Z,95504.13
2023-11-12T18:40:10.187Z,95509.47
2023-11-12T18:42:39.651Z,95515.94
2023-11-12T18:45:17.035Z,95512.47
2023-11-12T18:47:45.155Z,95510.56
2023-11-12T18:50:13.647Z,95517.50
2023-11-12T18:52:43.482Z,95522.88
2023-11-12T18:55:14.980Z,95519.09
2023-11-12T18:57:45.243Z,95511.56
2023-11-12T19:00:15.819Z,95516.94
2023-11-12T19:02:44.744Z,95513.75
2023-11-12T19:05:12.804Z,95512.38
2023-11-12T19:07:40.617Z,95514.75
2023-11-12T19:10:12.188Z,95527.03
2023-11-12T19:12:43.863Z,95526.75
2023-11-12T19:15:14.769Z,95527.56
2023-11-12T19:17:46.533Z,95532.38
2023-11-12T19:20:16.466Z,95537.75
2023-11-12T19:22:46.415Z,95529.44
2023-11-12T19:25:17.660Z,95532.91
2023-11-12T19:27:46.619Z,95536.59
2023-11-12T19:30:17.260Z,95545.41
2023-11-12T19:32:46.758Z,95552.88
2023-11-12T19:35:15.407Z,95548.31
2023-11-12T19:37:45.221Z,95558.22
2023-11-12T19:40:17.489Z,95556.34
2023-11-12T19:42:48.286Z,95561.19
2023-11-12T19:45:20.367Z,95560.41
2023-11-12T19:47:52.420Z,95566.06
2023-11-12T19:50:22.693Z,95566.31
2023-11-12T19:52:50.908Z,95562.38
2023-11-12T19:55:20.344Z,95566.41
2023-11-12T19:57:53.144Z,95570.09
2023-11-12T20:00:24.292Z,95573.09
2023-11-12T20:02:53.115Z,95581.59
2023-11-12T20:05:22.492Z,95584.59
2023-11-12T20:07:53.294Z,95589.16
2023-11-12T20:10:26.060Z,95583.28
2023-11-12T20:12:54.030Z,95583.59
2023-11-12T20:15:22.112Z,95586.03
2023-11-12T20:17:58.538Z,95579.31
2023-11-12T20:20:27.562Z,95584.16
2023-11-12T20:22:55.968Z,95565.41
2023-11-12T20:25:26.213Z,95575.06
2023-11-12T20:27:55.443Z,95572.06
2023-11-12T20:30:26.831Z,95578.22
2023-11-12T20:32:57.945Z,95577.44
2023-11-12T20:35:25.937Z,95576.06
2023-11-12T20:37:53.841Z,95579.53
2023-11-12T20:40:27.467Z,95586.78
2023-11-12T20:42:57.261Z,95592.94
2023-11-12T20:45:26.418Z,95586.97
2023-11-12T20:47:54.322Z,95589.84
2023-11-12T20:50:24.356Z,95593.25
2023-11-12T20:52:55.931Z,95587.88
2023-11-12T20:55:23.968Z,95588.88
2023-11-12T20:57:54.579Z,95591.56
2023-11-12T21:00:23.240Z,95592.66
2023-11-12T21:02:52.357Z,95591.56
2023-11-12T21:05:23.208Z,95601.50
2023-11-12T21:07:51.427Z,95610.41
2023-11-12T21:10:22.591Z,95607.41
2023-11-12T21:12:50.568Z,95609.31
2023-11-12T21:15:23.464Z,95608.72
2023-11-12T21:17:53.049Z,95618.28
2023-11-12T21:20:21.052Z,95616.19
2023-11-12T21:22:50.253Z,95616.78
2023-11-12T21:25:21.100Z,95603.69
2023-11-12T21:27:49.298Z,95607.34
2023-11-12T21:30:22.413Z,95597.63
2023-11-12T21:32:50.227Z,95592.09
2023-11-12T21:35:20.376Z,95591.78
2023-11-12T21:37:48.201Z,95584.03
2023-11-12T21:40:17.990Z,95578.28
2023-11-12T21:42:46.551Z,95597.53
2023-11-12T21:45:15.385Z,95597.53
2023-11-12T21:47:43.195Z,95599.16
2023-11-12T21:50:16.210Z,95604.50
2023-11-12T21:52:46.297Z,95612.81
2023-11-12T21:55:14.276Z,95600.91
2023-11-12T21:57:43.636Z,95605.97
2023-11-12T22:00:13.423Z,95633.06
2023-11-12T22:02:42.713Z,95622.25
2023-11-12T22:05:11.213Z,95614.22
2023-11-12T22:07:39.353Z,95618.38
2023-11-12T22:10:10.470Z,95612.94
2023-11-12T22:12:39.689Z,95608.50
2023-11-12T22:15:14.803Z,95614.06
2023-11-12T22:17:42.802Z,95609.09
2023-11-12T22:20:14.941Z,95615.44
2023-11-12T22:22:44.745Z,95590.63
2023-11-12T22:25:14.738Z,95598.59
2023-11-12T22:27:44.996Z,95596.41
2023-11-12T22:30:16.046Z,95616.16
2023-11-12T22:32:49.679Z,95631.06
2023-11-12T22:35:18.180Z,95642.81
2023-11-12T22:37:46.000Z,95644.88
2023-11-12T22:40:18.638Z,95636.72
2023-11-12T22:42:46.846Z,95641.50
2023-11-12T22:45:16.575Z,95641.41
2023-11-12T22:47:44.487Z,95654.22
2023-11-12T22:50:22.030Z,95647.69
2023-11-12T22:52:49.972Z,95659.72
2023-11-12T22:55:21.028Z,95657.22
2023-11-12T22:57:49.081Z,95659.81
2023-11-12T23:00:42.453Z,95660.31
2023-11-12T23:03:13.436Z,95663.66
2023-11-12T23:05:44.994Z,95644.28
2023-11-12T23:08:13.093Z,95636.13
2023-11-12T23:10:43.773Z,95647.06
2023-11-12T23:13:13.234Z,95653.44
2023-11-12T23:15:43.783Z,95651.22
2023-11-12T23:18:12.461Z,95661.38
2023-11-12T23:20:45.692Z,95673.91
2023-11-12T23:23:17.462Z,95667.09
2023-11-12T23:25:45.293Z,95661.94
2023-11-12T23:28:14.861Z,95666.41
2023-11-12T23:30:45.093Z,95667.19
2023-11-12T23:33:13.291Z,95673.75
2023-11-12T23:35:41.200Z,95675.22
2023-11-12T23:38:09.076Z,95671.16
2023-11-12T23:40:36.932Z,95667.03
2023-11-12T23:43:05.375Z,95667.56
2023-11-12T23:45:33.552Z,95670.41
2023-11-12T23:48:02.831Z,95671.69
2023-11-12T23:50:31.051Z,95667.31
2023-11-12T23:52:59.802Z,95675.25
2023-11-12T23:55:27.660Z,95669.75
2023-11-12T23:57:55.823Z,95654.09
